Time;durP1;ratioP1;P1;durP2;ratioP2;P2;SDS_P1;SDS_P2;PMS_P1;PMS_P2;Temp;Humidity;BMP_temperature;BMP_pressure;BME280_temperature;BME280_humidity;BME280_pressure;Samples;Min_cycle;Max_cycle;Signal;HPM_P1;HPM_P2
2023/03/21 00:00:42;;;;;;;15.43;10.13;;;9.90;99.90;;;;;;5098098;28;20192;-64
2023/03/21 00:03:09;;;;;;;19.50;11.37;;;9.90;99.90;;;;;;5096668;28;20240;-62
2023/03/21 00:05:40;;;;;;;15.83;11.43;;;9.90;99.90;;;;;;5096888;28;20199;-61
2023/03/21 00:08:08;;;;;;;18.43;10.93;;;9.90;99.90;;;;;;5096903;28;20327;-61
2023/03/21 00:10:35;;;;;;;18.30;10.90;;;9.90;99.90;;;;;;5082980;28;20285;-61
2023/03/21 00:13:11;;;;;;;15.57;10.43;;;9.90;99.90;;;;;;5099865;28;20252;-61
2023/03/21 00:15:49;;;;;;;17.33;11.43;;;9.90;99.90;;;;;;5096129;28;20205;-60
2023/03/21 00:18:35;;;;;;;16.37;11.03;;;9.90;99.90;;;;;;5099284;28;20265;-61
2023/03/21 00:21:04;;;;;;;16.50;10.70;;;9.90;99.90;;;;;;5097801;28;20202;-61
2023/03/21 00:23:51;;;;;;;16.33;10.67;;;9.90;99.90;;;;;;5097921;28;20203;-61
2023/03/21 00:26:18;;;;;;;16.47;10.47;;;9.90;99.90;;;;;;5099128;28;20779;-61
2023/03/21 00:28:45;;;;;;;15.10;11.17;;;9.90;99.90;;;;;;5080869;28;20284;-61
2023/03/21 00:31:11;;;;;;;14.50;10.63;;;9.80;99.90;;;;;;5098886;28;20201;-60
2023/03/21 00:33:38;;;;;;;17.63;11.13;;;9.80;99.90;;;;;;5066181;28;20791;-61
2023/03/21 00:36:07;;;;;;;16.70;10.57;;;9.80;99.90;;;;;;5098428;28;20191;-61
2023/03/21 00:38:35;;;;;;;15.13;11.17;;;9.70;99.90;;;;;;5099694;28;20711;-61
2023/03/21 00:41:07;;;;;;;16.47;10.60;;;9.60;99.90;;;;;;5100562;28;20199;-62
2023/03/21 00:43:54;;;;;;;16.93;11.03;;;9.70;99.90;;;;;;5099752;28;20202;-67
2023/03/21 00:46:21;;;;;;;17.03;12.10;;;9.70;99.90;;;;;;5097555;28;20237;-61
2023/03/21 00:48:51;;;;;;;14.17;10.67;;;9.70;99.90;;;;;;5099477;28;20203;-61
2023/03/21 00:51:25;;;;;;;19.07;11.27;;;9.70;99.90;;;;;;5081408;28;20685;-61
2023/03/21 00:53:54;;;;;;;16.27;11.97;;;9.70;99.90;;;;;;5098782;28;20308;-61
2023/03/21 00:56:22;;;;;;;20.10;12.30;;;9.70;99.90;;;;;;5091531;28;20653;-61
2023/03/21 00:58:50;;;;;;;18.03;11.70;;;9.70;99.90;;;;;;5098134;28;20675;-61
2023/03/21 01:01:17;;;;;;;18.57;12.50;;;9.80;99.90;;;;;;5098510;28;20201;-61
2023/03/21 01:03:49;;;;;;;19.63;13.47;;;9.70;99.90;;;;;;5099624;28;20234;-61
2023/03/21 01:06:20;;;;;;;21.83;14.37;;;9.70;99.90;;;;;;5095724;28;20199;-61
2023/03/21 01:08:47;;;;;;;20.13;12.87;;;9.70;99.90;;;;;;5092999;28;20285;-61
2023/03/21 01:11:22;;;;;;;23.53;14.50;;;9.70;99.90;;;;;;5099896;28;20262;-61
2023/03/21 01:13:49;;;;;;;27.77;15.07;;;9.70;99.90;;;;;;5098323;28;20590;-61
2023/03/21 01:16:33;;;;;;;20.13;13.30;;;9.70;99.90;;;;;;5099793;28;20203;-61
2023/03/21 01:19:00;;;;;;;24.03;14.90;;;9.70;99.90;;;;;;5099128;28;20583;-61
2023/03/21 01:21:31;;;;;;;16.70;12.33;;;9.70;99.90;;;;;;5096763;28;20210;-61
2023/03/21 01:23:58;;;;;;;19.60;12.87;;;9.70;99.90;;;;;;5096904;28;20806;-61
2023/03/21 01:26:25;;;;;;;20.40;13.87;;;9.60;99.90;;;;;;5097023;28;20198;-61
2023/03/21 01:28:52;;;;;;;17.93;12.97;;;9.70;99.90;;;;;;5098291;28;20259;-61
2023/03/21 01:31:18;;;;;;;21.10;13.33;;;9.70;99.90;;;;;;5097377;28;20220;-60
2023/03/21 01:33:46;;;;;;;17.70;13.13;;;9.70;99.90;;;;;;5097833;28;20221;-60
2023/03/21 01:36:17;;;;;;;23.63;13.53;;;9.60;99.90;;;;;;5096721;28;20198;-60
2023/03/21 01:38:48;;;;;;;21.47;12.70;;;9.70;99.90;;;;;;5096765;28;20273;-60
2023/03/21 01:41:28;;;;;;;20.97;11.73;;;9.70;99.90;;;;;;5079746;28;20558;-60
2023/03/21 01:44:16;;;;;;;23.93;12.43;;;9.70;99.90;;;;;;5094938;28;20289;-60
2023/03/21 01:46:51;;;;;;;18.63;12.37;;;9.70;99.90;;;;;;5096865;28;20245;-60
2023/03/21 01:49:39;;;;;;;19.17;12.47;;;9.70;99.90;;;;;;5097134;28;20205;-60
2023/03/21 01:52:09;;;;;;;21.00;11.80;;;9.70;99.90;;;;;;5098647;28;20229;-60
2023/03/21 01:54:46;;;;;;;17.50;10.97;;;9.80;99.90;;;;;;5097397;28;20295;-60
2023/03/21 01:57:31;;;;;;;22.33;12.30;;;9.80;99.90;;;;;;5099105;28;20201;-60
2023/03/21 02:00:11;;;;;;;20.03;10.80;;;9.80;99.90;;;;;;5094999;28;20655;-60
2023/03/21 02:02:50;;;;;;;14.33;10.17;;;9.70;99.90;;;;;;5098649;28;20288;-60
2023/03/21 02:05:39;;;;;;;19.43;11.03;;;9.70;99.90;;;;;;5077860;28;20206;-60
2023/03/21 02:08:06;;;;;;;14.37;10.53;;;9.70;99.90;;;;;;5096321;28;20257;-60
2023/03/21 02:10:35;;;;;;;18.10;10.30;;;9.80;99.90;;;;;;5093678;28;20703;-60
2023/03/21 02:13:08;;;;;;;17.93;10.00;;;9.80;99.90;;;;;;5079853;28;20681;-60
2023/03/21 02:15:41;;;;;;;14.80;9.83;;;9.80;99.90;;;;;;5094759;28;20207;-60
2023/03/21 02:18:24;;;;;;;16.73;8.80;;;9.80;99.90;;;;;;5098925;28;20228;-60
2023/03/21 02:21:24;;;;;;;15.97;9.33;;;9.80;99.90;;;;;;5097889;28;20209;-60
2023/03/21 02:24:19;;;;;;;16.63;10.00;;;9.80;99.90;;;;;;5095669;28;20573;-61
2023/03/21 02:26:58;;;;;;;14.23;8.77;;;9.80;99.90;;;;;;5098066;28;20292;-61
2023/03/21 02:29:52;;;;;;;16.30;9.30;;;9.80;99.90;;;;;;5076478;28;21099;-60
2023/03/21 02:32:22;;;;;;;16.47;9.17;;;9.80;99.90;;;;;;5098124;28;20209;-60
2023/03/21 02:35:43;;;;;;;18.00;8.10;;;9.80;99.90;;;;;;5088768;28;20202;-60
2023/03/21 02:38:51;;;;;;;13.00;8.13;;;9.80;99.90;;;;;;5094249;28;20210;-60
2023/03/21 02:41:25;;;;;;;13.50;8.17;;;9.80;99.90;;;;;;5064828;28;20630;-60
2023/03/21 02:44:13;;;;;;;15.47;8.17;;;9.80;99.90;;;;;;5098875;28;20736;-60
2023/03/21 02:46:51;;;;;;;10.97;7.57;;;9.70;99.90;;;;;;5096655;28;20245;-62
2023/03/21 02:49:43;;;;;;;16.60;7.40;;;9.70;99.90;;;;;;5099911;28;20202;-60
2023/03/21 02:52:15;;;;;;;17.83;7.93;;;9.80;99.90;;;;;;5081990;28;20228;-61
2023/03/21 02:54:59;;;;;;;10.93;6.63;;;9.70;99.90;;;;;;5094315;28;20209;-60
2023/03/21 02:57:26;;;;;;;16.37;6.93;;;9.70;99.90;;;;;;5100667;28;20491;-60
2023/03/21 03:00:12;;;;;;;8.10;5.97;;;9.70;99.90;;;;;;5098416;28;20214;-62
2023/03/21 03:02:43;;;;;;;11.03;6.70;;;9.70;99.90;;;;;;5100170;28;20247;-61
2023/03/21 03:05:15;;;;;;;15.43;6.40;;;9.70;99.90;;;;;;5096076;28;20248;-61
2023/03/21 03:08:02;;;;;;;11.60;6.40;;;9.80;99.90;;;;;;5100701;28;20222;-61
2023/03/21 03:10:58;;;;;;;10.23;6.53;;;9.70;99.90;;;;;;5100121;28;20654;-61
2023/03/21 03:13:34;;;;;;;11.27;6.30;;;9.80;99.90;;;;;;5031995;28;20378;-61
2023/03/21 03:16:10;;;;;;;13.60;5.83;;;9.80;99.90;;;;;;5097747;28;20258;-61
2023/03/21 03:18:49;;;;;;;10.17;6.53;;;9.80;99.90;;;;;;5096044;28;20243;-61
2023/03/21 03:21:37;;;;;;;10.93;5.57;;;9.80;99.90;;;;;;5096727;28;20200;-61
2023/03/21 03:24:07;;;;;;;11.13;5.37;;;9.80;99.90;;;;;;5092639;28;20212;-61
2023/03/21 03:26:46;;;;;;;9.70;5.50;;;9.70;99.90;;;;;;5081324;28;21110;-62
2023/03/21 03:29:16;;;;;;;9.20;5.67;;;9.80;99.90;;;;;;5098066;28;20308;-62
2023/03/21 03:31:59;;;;;;;11.20;5.80;;;9.90;99.90;;;;;;5074761;28;20799;-61
2023/03/21 03:34:33;;;;;;;9.20;6.13;;;9.90;99.90;;;;;;5096182;28;22506;-61
2023/03/21 03:37:04;;;;;;;8.10;5.13;;;9.80;99.90;;;;;;5101183;28;20210;-61
2023/03/21 03:39:42;;;;;;;9.87;5.80;;;9.80;99.90;;;;;;5100261;28;20709;-61
2023/03/21 03:42:16;;;;;;;13.73;6.23;;;9.80;99.90;;;;;;5098437;28;20247;-61
2023/03/21 03:44:55;;;;;;;14.00;5.47;;;9.70;99.90;;;;;;5095248;28;20193;-61
2023/03/21 03:47:42;;;;;;;9.93;5.40;;;9.70;99.90;;;;;;5099431;28;20229;-61
2023/03/21 03:50:43;;;;;;;9.33;5.77;;;9.80;99.90;;;;;;5091402;28;20284;-63
2023/03/21 03:53:21;;;;;;;10.70;6.23;;;9.80;99.90;;;;;;5102363;28;20292;-62
2023/03/21 03:55:50;;;;;;;9.73;5.97;;;9.80;99.90;;;;;;5096579;28;20205;-61
2023/03/21 03:58:19;;;;;;;11.77;5.97;;;9.80;99.90;;;;;;5098790;28;20206;-61
2023/03/21 04:00:51;;;;;;;11.37;6.33;;;9.80;99.90;;;;;;5097204;28;20559;-61
2023/03/21 04:03:18;;;;;;;9.70;5.40;;;9.70;99.90;;;;;;5100982;28;20289;-57
2023/03/21 04:05:45;;;;;;;11.00;5.73;;;9.80;99.90;;;;;;5095267;28;20212;-57
2023/03/21 04:08:14;;;;;;;9.73;5.20;;;9.70;99.90;;;;;;5099493;28;20669;-57
2023/03/21 04:10:42;;;;;;;10.67;5.20;;;9.70;99.90;;;;;;5097755;28;20213;-57
2023/03/21 04:13:09;;;;;;;12.57;6.47;;;9.70;99.90;;;;;;5079495;28;20749;-56
2023/03/21 04:15:36;;;;;;;8.93;5.23;;;9.80;99.90;;;;;;5095624;28;20676;-59
2023/03/21 04:18:03;;;;;;;10.67;6.23;;;9.80;99.90;;;;;;5094550;28;20737;-60
2023/03/21 04:20:30;;;;;;;10.50;6.00;;;9.80;99.90;;;;;;5097607;28;20195;-60
2023/03/21 04:23:03;;;;;;;11.37;6.07;;;9.90;99.90;;;;;;5095678;28;20293;-61
2023/03/21 04:25:33;;;;;;;8.73;5.53;;;9.90;99.90;;;;;;5097894;28;20698;-60
2023/03/21 04:28:01;;;;;;;14.17;6.20;;;9.90;99.90;;;;;;5098678;28;20201;-60
2023/03/21 04:30:28;;;;;;;11.03;5.13;;;9.90;99.90;;;;;;5097472;28;20759;-60
2023/03/21 04:32:59;;;;;;;10.77;5.70;;;9.80;99.90;;;;;;5081005;28;20285;-60
2023/03/21 04:35:27;;;;;;;9.97;5.80;;;9.90;99.90;;;;;;5078768;28;20369;-60
2023/03/21 04:37:55;;;;;;;9.17;5.27;;;10.00;99.90;;;;;;5081342;28;20231;-60
2023/03/21 04:40:23;;;;;;;14.13;5.90;;;9.90;99.90;;;;;;5098426;28;20228;-56
2023/03/21 04:42:50;;;;;;;11.23;6.00;;;10.00;99.90;;;;;;5096722;28;20285;-59
2023/03/21 04:45:17;;;;;;;12.17;7.07;;;9.90;99.90;;;;;;5097603;28;20226;-60
2023/03/21 04:47:44;;;;;;;10.57;6.00;;;9.80;99.90;;;;;;5099611;28;20313;-60
2023/03/21 04:50:12;;;;;;;14.97;6.47;;;9.90;99.90;;;;;;5097143;28;20196;-60
2023/03/21 04:52:39;;;;;;;8.73;6.20;;;9.90;99.90;;;;;;5080097;28;20282;-61
2023/03/21 04:55:08;;;;;;;12.53;6.07;;;9.90;99.90;;;;;;5097114;28;20246;-60
2023/03/21 04:57:37;;;;;;;11.60;5.97;;;9.90;99.90;;;;;;5097869;28;20268;-60
2023/03/21 05:00:09;;;;;;;9.97;6.00;;;9.90;99.90;;;;;;5094865;28;20274;-59
2023/03/21 05:02:37;;;;;;;10.00;5.83;;;9.90;99.90;;;;;;5098489;28;20698;-59
2023/03/21 05:05:04;;;;;;;10.37;5.83;;;10.00;99.90;;;;;;5095471;28;20292;-59
2023/03/21 05:07:31;;;;;;;11.47;6.00;;;10.00;99.90;;;;;;5096304;28;21469;-60
2023/03/21 05:09:58;;;;;;;11.93;6.50;;;10.00;99.90;;;;;;5062948;28;20193;-59
2023/03/21 05:12:28;;;;;;;14.40;6.23;;;10.00;99.90;;;;;;5096408;28;20206;-60
2023/03/21 05:14:54;;;;;;;12.33;6.47;;;10.00;99.90;;;;;;5095331;28;20295;-59
2023/03/21 05:17:27;;;;;;;13.83;5.67;;;10.00;99.90;;;;;;5097019;28;20569;-59
2023/03/21 05:19:55;;;;;;;11.70;6.20;;;9.90;99.90;;;;;;5079828;28;20205;-59
2023/03/21 05:22:23;;;;;;;12.73;6.57;;;9.90;99.90;;;;;;5097929;28;20647;-59
2023/03/21 05:24:50;;;;;;;14.20;6.40;;;9.90;99.90;;;;;;5095446;28;20244;-59
2023/03/21 05:27:34;;;;;;;11.97;6.17;;;10.00;99.90;;;;;;5096459;28;20208;-60
2023/03/21 05:30:06;;;;;;;12.27;5.63;;;10.00;99.90;;;;;;5091555;28;20207;-59
2023/03/21 05:32:33;;;;;;;10.23;5.73;;;9.90;99.90;;;;;;5096635;28;20210;-60
2023/03/21 05:35:00;;;;;;;10.30;5.60;;;10.00;99.90;;;;;;5076384;28;20218;-59
2023/03/21 05:37:27;;;;;;;10.77;5.70;;;10.00;99.90;;;;;;5096329;28;20642;-59
2023/03/21 05:39:54;;;;;;;11.07;5.93;;;10.00;99.90;;;;;;5097382;28;20197;-59
2023/03/21 05:42:21;;;;;;;10.07;6.03;;;10.00;99.90;;;;;;5097950;28;20205;-59
2023/03/21 05:44:48;;;;;;;10.50;5.67;;;9.90;99.90;;;;;;5076935;28;20291;-59
2023/03/21 05:47:17;;;;;;;11.70;5.60;;;10.00;99.90;;;;;;5097011;28;20233;-59
2023/03/21 05:49:44;;;;;;;15.87;6.20;;;10.00;99.90;;;;;;5098320;28;20227;-60
2023/03/21 05:52:11;;;;;;;18.20;6.43;;;10.00;99.90;;;;;;5098612;28;20281;-59
2023/03/21 05:54:38;;;;;;;10.83;5.50;;;10.00;99.90;;;;;;5094568;28;20214;-60
2023/03/21 05:57:05;;;;;;;9.60;5.60;;;10.10;99.90;;;;;;5099782;28;20205;-59
2023/03/21 05:59:32;;;;;;;11.83;6.13;;;10.00;99.90;;;;;;5097056;28;20601;-59
2023/03/21 06:01:59;;;;;;;13.43;5.50;;;10.10;99.90;;;;;;5098333;28;20233;-60
2023/03/21 06:04:26;;;;;;;8.73;6.20;;;10.10;99.90;;;;;;5095819;28;21366;-60
2023/03/21 06:06:53;;;;;;;16.17;5.87;;;10.00;99.90;;;;;;5099861;28;20217;-59
2023/03/21 06:09:22;;;;;;;9.27;5.53;;;10.00;99.90;;;;;;5080051;28;20209;-56
2023/03/21 06:11:52;;;;;;;14.73;5.37;;;10.00;99.90;;;;;;5099810;28;20624;-56
2023/03/21 06:14:19;;;;;;;9.50;5.70;;;10.00;99.90;;;;;;5096513;28;20266;-57
2023/03/21 06:16:46;;;;;;;12.43;6.23;;;10.00;99.90;;;;;;5072473;28;20668;-56
2023/03/21 06:19:13;;;;;;;8.13;5.77;;;10.00;99.90;;;;;;5096407;28;20308;-56
2023/03/21 06:21:40;;;;;;;17.13;5.30;;;10.00;99.90;;;;;;5097932;28;20198;-56
2023/03/21 06:24:07;;;;;;;14.13;5.80;;;10.00;99.90;;;;;;5100155;28;20678;-60
2023/03/21 06:26:34;;;;;;;12.07;5.70;;;10.00;99.90;;;;;;5103799;28;20576;-61
2023/03/21 06:29:01;;;;;;;10.03;5.53;;;10.10;99.90;;;;;;5101679;28;20281;-60
2023/03/21 06:31:28;;;;;;;7.43;4.73;;;10.10;99.90;;;;;;5101004;28;20616;-60
2023/03/21 06:33:55;;;;;;;12.17;5.33;;;10.10;99.90;;;;;;5100932;28;20336;-61
2023/03/21 06:36:22;;;;;;;11.27;5.57;;;10.10;99.90;;;;;;5096164;28;20202;-61
2023/03/21 06:38:49;;;;;;;9.83;5.50;;;10.10;99.90;;;;;;5103620;28;20236;-60
2023/03/21 06:41:16;;;;;;;13.03;5.57;;;10.10;99.90;;;;;;5085013;28;20235;-61
2023/03/21 06:43:44;;;;;;;10.73;5.67;;;10.20;99.90;;;;;;5098881;28;20198;-60
2023/03/21 06:46:11;;;;;;;10.93;5.33;;;10.10;99.90;;;;;;5097895;28;20230;-60
2023/03/21 06:48:43;;;;;;;9.50;6.00;;;10.10;99.90;;;;;;5083922;28;21006;-61
2023/03/21 06:51:11;;;;;;;9.87;5.10;;;10.10;99.90;;;;;;4732041;28;10000501;-62
2023/03/21 06:53:40;;;;;;;9.63;5.60;;;10.10;99.90;;;;;;5090271;28;20221;-60
2023/03/21 06:56:08;;;;;;;12.83;5.80;;;10.10;99.90;;;;;;5097602;28;20251;-61
2023/03/21 06:58:35;;;;;;;15.60;5.47;;;10.00;99.90;;;;;;5077780;28;20255;-61
2023/03/21 07:01:03;;;;;;;7.60;4.83;;;10.10;99.90;;;;;;5092066;27;20210;-61
2023/03/21 07:03:31;;;;;;;10.77;5.80;;;10.10;99.90;;;;;;5097556;28;20201;-61
2023/03/21 07:06:02;;;;;;;11.83;5.40;;;10.00;99.90;;;;;;5091795;28;20293;-61
2023/03/21 07:08:29;;;;;;;11.53;5.20;;;10.00;99.90;;;;;;5079833;28;20235;-61
2023/03/21 07:10:56;;;;;;;12.70;5.53;;;10.00;99.90;;;;;;5092660;28;20291;-61
2023/03/21 07:13:23;;;;;;;11.60;5.80;;;10.00;99.90;;;;;;5064640;28;20202;-61
2023/03/21 07:15:52;;;;;;;11.07;5.40;;;10.00;99.90;;;;;;5094589;28;20240;-61
2023/03/21 07:18:19;;;;;;;12.60;5.43;;;10.00;99.90;;;;;;5093011;28;20250;-61
2023/03/21 07:20:49;;;;;;;9.23;5.30;;;10.00;99.90;;;;;;5072496;28;20272;-61
2023/03/21 07:23:18;;;;;;;14.10;6.00;;;10.00;99.90;;;;;;5080322;28;20795;-61
2023/03/21 07:25:47;;;;;;;9.23;5.90;;;10.00;99.90;;;;;;5095618;28;20297;-64
2023/03/21 07:28:15;;;;;;;10.10;5.90;;;10.00;99.90;;;;;;5095348;28;20243;-61
2023/03/21 07:30:43;;;;;;;10.13;5.70;;;10.00;99.90;;;;;;5097704;28;20344;-61
2023/03/21 07:33:11;;;;;;;10.73;5.63;;;10.00;99.90;;;;;;5091463;28;20209;-61
2023/03/21 07:35:38;;;;;;;14.03;5.97;;;10.00;99.90;;;;;;5090066;28;21327;-61
2023/03/21 07:38:06;;;;;;;8.87;5.30;;;10.00;99.90;;;;;;5094072;28;20205;-61
2023/03/21 07:40:33;;;;;;;9.17;4.77;;;10.10;99.90;;;;;;5095485;28;20201;-61
2023/03/21 07:42:59;;;;;;;12.20;5.07;;;10.10;99.90;;;;;;5091703;28;20288;-61
2023/03/21 07:45:31;;;;;;;9.23;5.47;;;10.10;99.90;;;;;;5093379;28;20240;-61
2023/03/21 07:47:58;;;;;;;13.53;5.23;;;10.10;99.90;;;;;;5094767;28;20705;-61
2023/03/21 07:50:25;;;;;;;8.10;4.93;;;10.10;99.90;;;;;;5074015;28;20200;-61
2023/03/21 07:52:52;;;;;;;11.80;5.17;;;10.10;99.90;;;;;;5074096;28;20218;-61
2023/03/21 07:55:19;;;;;;;18.23;6.20;;;10.10;99.90;;;;;;5093115;27;20796;-61
2023/03/21 07:57:50;;;;;;;12.77;5.90;;;10.10;99.90;;;;;;5071873;28;22539;-61
2023/03/21 08:00:21;;;;;;;14.37;5.10;;;10.20;99.90;;;;;;5089786;28;20205;-61
2023/03/21 08:02:54;;;;;;;13.97;5.83;;;10.30;99.90;;;;;;5093317;28;20201;-61
2023/03/21 08:05:35;;;;;;;11.90;5.77;;;10.30;99.90;;;;;;5092139;28;20666;-61
2023/03/21 08:08:04;;;;;;;12.07;5.30;;;10.30;99.90;;;;;;5090818;28;20265;-61
2023/03/21 08:10:32;;;;;;;11.83;5.67;;;10.10;99.90;;;;;;5059642;28;20202;-61
2023/03/21 08:12:59;;;;;;;9.87;5.27;;;10.20;99.90;;;;;;5093615;28;20265;-61
2023/03/21 08:15:26;;;;;;;12.47;6.37;;;10.20;99.90;;;;;;5088627;28;20245;-61
2023/03/21 08:17:53;;;;;;;12.47;5.83;;;10.20;99.90;;;;;;5091157;28;20324;-62
2023/03/21 08:20:22;;;;;;;10.57;5.97;;;10.30;99.90;;;;;;5089995;28;20193;-61
2023/03/21 08:22:49;;;;;;;11.40;6.13;;;10.20;99.90;;;;;;5091264;28;20205;-61
2023/03/21 08:25:18;;;;;;;11.70;5.60;;;10.30;99.90;;;;;;5093391;28;20297;-61
2023/03/21 08:27:46;;;;;;;11.63;5.90;;;10.30;99.90;;;;;;5092832;28;20351;-61
2023/03/21 08:30:16;;;;;;;13.70;6.57;;;10.30;99.90;;;;;;5091031;28;20202;-60
2023/03/21 08:32:43;;;;;;;14.97;6.40;;;10.30;99.90;;;;;;5092005;28;20209;-61
2023/03/21 08:35:12;;;;;;;8.83;5.80;;;10.40;99.90;;;;;;5088229;28;20202;-60
2023/03/21 08:37:40;;;;;;;9.13;6.17;;;10.30;99.90;;;;;;5092423;28;20201;-61
2023/03/21 08:40:12;;;;;;;14.77;6.30;;;10.40;99.90;;;;;;5078069;28;20293;-61
2023/03/21 08:42:42;;;;;;;16.83;6.50;;;10.50;99.90;;;;;;5092323;28;20220;-61
2023/03/21 08:45:11;;;;;;;12.03;6.30;;;10.40;99.90;;;;;;5086637;28;20201;-61
2023/03/21 08:47:38;;;;;;;12.90;6.20;;;10.40;99.90;;;;;;5094411;28;20229;-61
2023/03/21 08:50:07;;;;;;;13.67;6.80;;;10.40;99.90;;;;;;5091715;28;20206;-61
2023/03/21 08:52:34;;;;;;;12.87;6.93;;;10.40;99.90;;;;;;5092833;28;20202;-61
2023/03/21 08:55:01;;;;;;;11.30;6.23;;;10.50;99.90;;;;;;5096014;28;20219;-61
2023/03/21 08:57:28;;;;;;;11.13;5.90;;;10.50;99.90;;;;;;5092037;28;20225;-61
2023/03/21 08:59:55;;;;;;;12.70;6.27;;;10.50;99.90;;;;;;5093086;28;20906;-61
2023/03/21 09:02:22;;;;;;;13.20;6.43;;;10.50;99.90;;;;;;5091796;28;20229;-61
2023/03/21 09:04:51;;;;;;;12.20;6.03;;;10.50;99.90;;;;;;5092011;28;20229;-61
2023/03/21 09:07:19;;;;;;;8.77;6.03;;;10.60;99.90;;;;;;5076661;28;20206;-60
2023/03/21 09:09:46;;;;;;;9.10;5.77;;;10.50;99.90;;;;;;5092751;28;20517;-60
2023/03/21 09:12:23;;;;;;;12.30;6.13;;;10.50;99.90;;;;;;5093120;28;20217;-60
2023/03/21 09:14:52;;;;;;;9.80;5.23;;;10.60;99.90;;;;;;5091806;28;20215;-61
2023/03/21 09:17:19;;;;;;;9.20;5.13;;;10.60;99.90;;;;;;5090368;28;20197;-60
2023/03/21 09:19:48;;;;;;;9.70;5.67;;;10.60;99.90;;;;;;5090292;28;20285;-62
2023/03/21 09:22:16;;;;;;;9.53;5.33;;;10.80;99.90;;;;;;5089943;27;20601;-62
2023/03/21 09:24:48;;;;;;;7.33;5.23;;;10.70;99.90;;;;;;5090288;28;20202;-62
2023/03/21 09:27:21;;;;;;;12.67;5.30;;;10.70;99.90;;;;;;5076417;28;20241;-59
2023/03/21 09:29:49;;;;;;;13.50;5.17;;;10.80;99.90;;;;;;5094520;28;20202;-62
2023/03/21 09:32:17;;;;;;;11.53;4.63;;;10.90;99.90;;;;;;5070430;28;20643;-69
2023/03/21 09:34:44;;;;;;;10.20;4.83;;;10.70;99.90;;;;;;5072695;28;20220;-59
2023/03/21 09:37:12;;;;;;;7.13;4.60;;;10.80;99.90;;;;;;5075684;28;20656;-59
2023/03/21 09:39:41;;;;;;;11.00;5.00;;;10.90;99.90;;;;;;5075886;28;20264;-60
2023/03/21 09:42:47;;;;;;;6.27;4.30;;;10.90;99.90;;;;;;5093817;28;20662;-60
2023/03/21 09:45:21;;;;;;;9.10;4.80;;;10.80;99.90;;;;;;5090181;28;20649;-60
2023/03/21 09:47:51;;;;;;;8.73;4.77;;;10.90;99.90;;;;;;5090665;28;20248;-60
2023/03/21 09:50:19;;;;;;;8.87;4.70;;;10.90;99.90;;;;;;5094823;28;20679;-60
2023/03/21 09:52:53;;;;;;;10.60;5.00;;;11.00;99.90;;;;;;5095413;28;20198;-61
2023/03/21 09:55:29;;;;;;;7.47;4.00;;;10.90;99.90;;;;;;5071938;28;20984;-60
2023/03/21 09:58:19;;;;;;;8.47;4.00;;;11.00;99.90;;;;;;5091927;28;20702;-63
2023/03/21 10:00:52;;;;;;;7.47;4.73;;;11.00;99.90;;;;;;5073837;28;20209;-60
2023/03/21 10:03:23;;;;;;;9.67;4.83;;;11.00;99.90;;;;;;5077254;28;20231;-60
2023/03/21 10:05:51;;;;;;;8.20;4.30;;;11.00;99.90;;;;;;5068673;28;20574;-60
2023/03/21 10:08:26;;;;;;;9.10;4.70;;;11.00;99.90;;;;;;5072591;28;20230;-60
2023/03/21 10:10:57;;;;;;;8.93;4.07;;;11.10;99.90;;;;;;5092855;28;20200;-60
2023/03/21 10:13:28;;;;;;;7.67;4.03;;;11.10;99.90;;;;;;5071330;28;20203;-60
2023/03/21 10:15:57;;;;;;;10.47;4.40;;;11.10;99.90;;;;;;5088570;28;20293;-60
2023/03/21 10:18:27;;;;;;;6.83;4.20;;;11.30;99.90;;;;;;5090563;28;20223;-60
2023/03/21 10:20:55;;;;;;;9.33;4.67;;;11.20;99.90;;;;;;5090424;28;20202;-60
2023/03/21 10:23:27;;;;;;;9.70;4.20;;;11.30;99.90;;;;;;5078665;28;20279;-60
2023/03/21 10:25:58;;;;;;;6.50;4.43;;;11.30;99.90;;;;;;5092410;28;20281;-60
2023/03/21 10:28:30;;;;;;;12.17;4.70;;;11.30;99.90;;;;;;5092894;28;20198;-60
2023/03/21 10:31:13;;;;;;;7.80;4.47;;;11.40;99.90;;;;;;5092909;28;20268;-61
2023/03/21 10:33:45;;;;;;;12.07;4.97;;;11.40;99.90;;;;;;5092556;28;20241;-60
2023/03/21 10:36:30;;;;;;;9.83;4.67;;;11.50;99.90;;;;;;5092310;28;20222;-61
2023/03/21 10:39:16;;;;;;;10.70;4.47;;;11.60;99.90;;;;;;5093723;28;21114;-64
2023/03/21 10:41:43;;;;;;;7.93;4.10;;;11.60;99.90;;;;;;5088457;28;20787;-60
2023/03/21 10:44:13;;;;;;;8.40;4.73;;;11.60;99.90;;;;;;5090341;28;20336;-60
2023/03/21 10:46:55;;;;;;;6.03;4.13;;;11.60;99.90;;;;;;5088536;28;20926;-63
2023/03/21 10:49:25;;;;;;;7.17;4.17;;;11.60;99.90;;;;;;5090895;28;20202;-60
2023/03/21 10:51:58;;;;;;;8.97;5.20;;;11.70;99.90;;;;;;5090217;28;20219;-60
2023/03/21 10:54:31;;;;;;;9.90;5.00;;;11.80;99.90;;;;;;5089218;28;20199;-60
2023/03/21 10:57:13;;;;;;;8.10;3.90;;;11.70;99.90;;;;;;5090605;28;20900;-60
2023/03/21 10:59:48;;;;;;;5.63;4.17;;;11.80;99.90;;;;;;5078058;28;20198;-60
2023/03/21 11:02:36;;;;;;;7.27;4.20;;;11.90;99.90;;;;;;5093042;28;20274;-60
2023/03/21 11:05:33;;;;;;;7.50;4.13;;;12.00;99.90;;;;;;5088496;28;20203;-60
2023/03/21 11:08:10;;;;;;;8.73;4.30;;;12.10;99.90;;;;;;5069590;28;20206;-62
2023/03/21 11:11:05;;;;;;;12.50;4.60;;;12.10;99.90;;;;;;5099733;28;20655;-60
2023/03/21 11:13:41;;;;;;;6.43;3.90;;;12.20;99.90;;;;;;5097475;28;20768;-60
2023/03/21 11:16:21;;;;;;;7.90;3.77;;;12.10;99.90;;;;;;5099981;28;21312;-60
2023/03/21 11:18:51;;;;;;;9.63;4.00;;;12.10;99.90;;;;;;5100535;28;20241;-60
2023/03/21 11:21:18;;;;;;;11.63;3.93;;;12.10;99.90;;;;;;5100524;28;20259;-60
2023/03/21 11:23:48;;;;;;;8.47;4.17;;;12.10;99.90;;;;;;5099101;28;20248;-60
2023/03/21 11:26:31;;;;;;;11.00;4.60;;;12.10;99.90;;;;;;5098017;28;20297;-60
2023/03/21 11:28:58;;;;;;;10.80;4.57;;;12.20;99.90;;;;;;5088981;27;20195;-60
2023/03/21 11:31:39;;;;;;;7.50;4.00;;;12.20;99.90;;;;;;5080695;28;20262;-60
2023/03/21 11:34:08;;;;;;;8.07;4.33;;;12.40;99.90;;;;;;5090692;28;20210;-60
2023/03/21 11:36:40;;;;;;;8.90;4.20;;;12.40;99.90;;;;;;5087343;28;20219;-60
2023/03/21 11:39:10;;;;;;;8.20;4.10;;;12.50;99.90;;;;;;5094364;28;20704;-60
2023/03/21 11:41:39;;;;;;;10.67;4.33;;;12.60;99.90;;;;;;5089567;28;20249;-60
2023/03/21 11:44:30;;;;;;;7.20;4.20;;;12.70;99.90;;;;;;5093850;28;20206;-60
2023/03/21 11:46:57;;;;;;;8.00;3.37;;;12.60;99.90;;;;;;5095806;28;20221;-60
2023/03/21 11:49:26;;;;;;;6.37;3.70;;;12.70;99.90;;;;;;5098788;28;20957;-61
2023/03/21 11:52:06;;;;;;;5.90;4.10;;;12.50;99.90;;;;;;5097018;28;20199;-62
2023/03/21 11:54:51;;;;;;;9.27;4.30;;;12.60;99.90;;;;;;5095431;28;20268;-61
2023/03/21 11:57:32;;;;;;;6.27;3.37;;;12.60;99.90;;;;;;5100114;28;20593;-61
2023/03/21 12:00:14;;;;;;;6.87;3.50;;;12.50;99.90;;;;;;5097760;28;20272;-61
2023/03/21 12:03:02;;;;;;;7.77;3.80;;;12.50;99.90;;;;;;5098101;28;20221;-61
2023/03/21 12:05:39;;;;;;;4.20;3.10;;;12.60;99.90;;;;;;5094334;28;20518;-61
2023/03/21 12:08:40;;;;;;;10.33;3.97;;;12.60;99.90;;;;;;5077698;28;20215;-62
2023/03/21 12:11:25;;;;;;;12.17;4.47;;;12.70;99.90;;;;;;5093184;28;20225;-61
2023/03/21 12:14:11;;;;;;;6.73;3.77;;;12.70;99.90;;;;;;5096057;28;20390;-61
2023/03/21 12:16:50;;;;;;;4.47;3.40;;;12.80;99.90;;;;;;5094274;28;20384;-62
2023/03/21 12:19:38;;;;;;;7.37;4.13;;;12.70;99.90;;;;;;5094011;28;20249;-61
2023/03/21 12:22:26;;;;;;;6.83;3.87;;;13.00;99.90;;;;;;5095589;28;20659;-61
2023/03/21 12:24:55;;;;;;;7.53;4.67;;;13.10;99.90;;;;;;5086830;28;20298;-60
2023/03/21 12:27:25;;;;;;;9.73;3.87;;;13.00;99.90;;;;;;5086796;28;20236;-63
2023/03/21 12:30:23;;;;;;;9.20;3.87;;;13.00;99.90;;;;;;5087000;28;20199;-62
2023/03/21 12:33:12;;;;;;;6.87;3.73;;;12.90;99.90;;;;;;5086468;28;20229;-61
2023/03/21 12:35:51;;;;;;;5.13;3.90;;;12.90;99.90;;;;;;5089725;28;20215;-62
2023/03/21 12:38:26;;;;;;;8.33;3.60;;;12.90;99.90;;;;;;5090548;28;20362;-61
2023/03/21 12:41:07;;;;;;;7.77;4.23;;;12.90;99.90;;;;;;5083277;28;20193;-62
2023/03/21 12:43:43;;;;;;;7.73;4.03;;;13.00;99.90;;;;;;5079289;28;20199;-62
2023/03/21 12:46:32;;;;;;;4.33;3.20;;;13.00;99.90;;;;;;5047635;28;20204;-61
2023/03/21 12:49:20;;;;;;;6.37;3.50;;;13.00;99.90;;;;;;5053575;28;20655;-62
2023/03/21 12:51:50;;;;;;;7.40;3.17;;;13.00;99.90;;;;;;5053588;28;20671;-61
2023/03/21 12:54:22;;;;;;;4.70;3.40;;;12.90;99.90;;;;;;5068863;28;20655;-61
2023/03/21 12:56:57;;;;;;;5.60;3.60;;;13.00;99.90;;;;;;5075460;28;20246;-62
2023/03/21 12:59:38;;;;;;;7.03;3.57;;;13.00;99.90;;;;;;5067900;28;20236;-61
2023/03/21 13:02:16;;;;;;;9.23;3.30;;;13.20;99.90;;;;;;5068604;28;20213;-62
2023/03/21 13:04:51;;;;;;;4.30;3.20;;;13.70;99.90;;;;;;5065751;28;20215;-62
2023/03/21 13:07:21;;;;;;;9.00;2.97;;;14.10;99.90;;;;;;5070724;28;20229;-62
2023/03/21 13:09:50;;;;;;;3.50;2.77;;;14.30;99.90;;;;;;5067150;28;20294;-62
2023/03/21 13:12:34;;;;;;;7.03;3.40;;;14.10;99.90;;;;;;5061886;28;20214;-62